Time;durP1;ratioP1;P1;durP2;ratioP2;P2;SDS_P1;SDS_P2;PMS_P1;PMS_P2;Temp;Humidity;BMP_temperature;BMP_pressure;BME280_temperature;BME280_humidity;BME280_pressure;Samples;Min_cycle;Max_cycle;Signal;HPM_P1;HPM_P2
2021/01/24 00:00:58;;;;;;;13.90;7.57;;;;;;;;;;10277643;28;20222;-75
2021/01/24 00:06:00;;;;;;;15.37;7.67;;;;;;;;;;10287004;28;20229;-76
2021/01/24 00:11:03;;;;;;;15.50;7.70;;;;;;;;;;10283334;28;20229;-76
2021/01/24 00:16:05;;;;;;;12.80;7.43;;;;;;;;;;10271215;28;20615;-77
2021/01/24 00:21:07;;;;;;;13.33;7.27;;;;;;;;;;10281796;28;20661;-77
2021/01/24 00:26:10;;;;;;;12.93;6.40;;;;;;;;;;10274118;28;20221;-76
2021/01/24 00:31:12;;;;;;;14.73;6.73;;;;;;;;;;10281794;28;20217;-75
2021/01/24 00:36:15;;;;;;;11.60;6.33;;;;;;;;;;10284859;28;20245;-75
2021/01/24 00:41:18;;;;;;;10.60;6.17;;;;;;;;;;10282326;28;20252;-76
2021/01/24 00:46:21;;;;;;;11.60;6.10;;;;;;;;;;10283279;28;20222;-75
2021/01/24 00:51:23;;;;;;;9.73;5.97;;;;;;;;;;10268749;28;20217;-76
2021/01/24 00:56:29;;;;;;;10.53;5.27;;;;;;;;;;10277789;28;20256;-75
2021/01/24 01:01:37;;;;;;;9.20;5.50;;;;;;;;;;10280136;28;20217;-77
2021/01/24 01:06:44;;;;;;;10.13;5.63;;;;;;;;;;10285195;28;20300;-77
2021/01/24 01:11:53;;;;;;;9.80;5.80;;;;;;;;;;10287986;28;20213;-77
2021/01/24 01:17:00;;;;;;;11.13;5.83;;;;;;;;;;10284307;28;20754;-77
2021/01/24 01:22:12;;;;;;;9.30;5.47;;;;;;;;;;10286789;28;20245;-77
2021/01/24 01:27:23;;;;;;;10.30;5.87;;;;;;;;;;10276142;28;20227;-77
2021/01/24 01:32:33;;;;;;;11.70;6.20;;;;;;;;;;10285781;28;20327;-77
2021/01/24 01:37:43;;;;;;;12.77;6.40;;;;;;;;;;10281921;28;20796;-76
2021/01/24 01:42:48;;;;;;;11.37;5.90;;;;;;;;;;10284355;28;20221;-77
2021/01/24 01:47:50;;;;;;;8.63;5.77;;;;;;;;;;10282838;28;20632;-78
2021/01/24 01:52:53;;;;;;;11.27;6.33;;;;;;;;;;10284229;28;20220;-76
2021/01/24 01:57:56;;;;;;;11.97;6.27;;;;;;;;;;10284551;28;20247;-76
2021/01/24 02:03:04;;;;;;;10.97;6.63;;;;;;;;;;10286117;28;20312;-76
2021/01/24 02:08:09;;;;;;;10.87;6.57;;;;;;;;;;10293914;28;20671;-77
2021/01/24 02:13:16;;;;;;;9.90;5.90;;;;;;;;;;10284064;28;20537;-76
2021/01/24 02:18:19;;;;;;;8.70;5.73;;;;;;;;;;10286119;28;20713;-75
2021/01/24 02:23:22;;;;;;;11.93;6.20;;;;;;;;;;10288166;28;20592;-74
2021/01/24 02:28:29;;;;;;;12.03;5.63;;;;;;;;;;10277542;28;20225;-76
2021/01/24 02:33:34;;;;;;;12.57;5.70;;;;;;;;;;10292329;28;20241;-76
2021/01/24 02:38:37;;;;;;;9.53;5.33;;;;;;;;;;10287938;28;20241;-75
2021/01/24 02:43:42;;;;;;;11.43;5.40;;;;;;;;;;10294640;28;20221;-76
2021/01/24 02:48:44;;;;;;;8.83;5.07;;;;;;;;;;10289030;28;20206;-75
2021/01/24 02:53:47;;;;;;;10.17;5.60;;;;;;;;;;10289506;28;20225;-74
2021/01/24 02:58:49;;;;;;;8.80;5.30;;;;;;;;;;10289383;28;20671;-75
2021/01/24 03:03:52;;;;;;;10.37;5.03;;;;;;;;;;10288669;28;20214;-75
2021/01/24 03:08:54;;;;;;;8.43;5.00;;;;;;;;;;10290120;28;20229;-75
2021/01/24 03:13:58;;;;;;;6.73;4.40;;;;;;;;;;10291979;28;20628;-75
2021/01/24 03:19:02;;;;;;;8.17;4.60;;;;;;;;;;10294101;28;20321;-74
2021/01/24 03:24:05;;;;;;;8.97;4.10;;;;;;;;;;10286707;28;20210;-75
2021/01/24 03:29:07;;;;;;;9.83;4.20;;;;;;;;;;10293287;28;20236;-74
2021/01/24 03:34:13;;;;;;;7.93;3.73;;;;;;;;;;10289142;28;20244;-75
2021/01/24 03:39:15;;;;;;;8.80;4.57;;;;;;;;;;10289693;28;20241;-74
2021/01/24 03:44:17;;;;;;;8.83;3.70;;;;;;;;;;10286155;28;20600;-74
2021/01/24 03:49:21;;;;;;;8.37;3.87;;;;;;;;;;10288579;28;20862;-74
2021/01/24 03:54:23;;;;;;;7.40;3.80;;;;;;;;;;10289747;28;20579;-75
2021/01/24 03:59:24;;;;;;;6.43;3.27;;;;;;;;;;10288103;28;20734;-74
2021/01/24 04:04:27;;;;;;;4.67;2.93;;;;;;;;;;10283381;28;20225;-75
2021/01/24 04:09:29;;;;;;;5.70;3.37;;;;;;;;;;10279881;28;20212;-75
2021/01/24 04:14:31;;;;;;;8.53;3.53;;;;;;;;;;10287637;28;20361;-75
2021/01/24 04:19:33;;;;;;;5.40;3.17;;;;;;;;;;10286350;28;20233;-75
2021/01/24 04:24:35;;;;;;;4.53;3.03;;;;;;;;;;10290156;28;20224;-75
2021/01/24 04:29:37;;;;;;;5.43;3.00;;;;;;;;;;10282814;28;20473;-75
2021/01/24 04:34:39;;;;;;;7.00;2.90;;;;;;;;;;10287530;28;20404;-75
2021/01/24 04:39:41;;;;;;;4.70;2.70;;;;;;;;;;10281067;28;20633;-75
2021/01/24 04:44:43;;;;;;;4.50;2.40;;;;;;;;;;10280846;28;20690;-75
2021/01/24 04:49:46;;;;;;;3.80;1.97;;;;;;;;;;10279011;28;20222;-75
2021/01/24 04:54:49;;;;;;;3.87;2.00;;;;;;;;;;10287559;28;20710;-75
2021/01/24 04:59:51;;;;;;;3.17;1.50;;;;;;;;;;10288391;28;20245;-73
2021/01/24 05:04:53;;;;;;;2.17;1.50;;;;;;;;;;10284965;28;20222;-74
2021/01/24 05:09:57;;;;;;;4.47;1.43;;;;;;;;;;10291893;28;20226;-73
2021/01/24 05:14:59;;;;;;;3.97;1.60;;;;;;;;;;10280826;28;20221;-74
2021/01/24 05:20:01;;;;;;;4.47;2.07;;;;;;;;;;10288576;28;20241;-74
2021/01/24 05:25:04;;;;;;;2.93;1.40;;;;;;;;;;10282249;28;20214;-74
2021/01/24 05:30:07;;;;;;;2.50;1.40;;;;;;;;;;10278302;28;20221;-74
2021/01/24 05:35:11;;;;;;;2.47;1.37;;;;;;;;;;10283517;28;20238;-75
2021/01/24 05:40:13;;;;;;;2.67;1.50;;;;;;;;;;10280831;28;20220;-76
2021/01/24 05:45:16;;;;;;;2.10;1.30;;;;;;;;;;10287471;28;20230;-75
2021/01/24 05:50:20;;;;;;;2.23;1.20;;;;;;;;;;10277387;28;20244;-75
2021/01/24 05:55:31;;;;;;;3.07;1.47;;;;;;;;;;10288273;28;20261;-76
2021/01/24 06:00:33;;;;;;;4.10;1.30;;;;;;;;;;10286160;28;20220;-75
2021/01/24 06:05:36;;;;;;;1.80;1.20;;;;;;;;;;10290108;28;20228;-75
2021/01/24 06:10:38;;;;;;;3.07;1.20;;;;;;;;;;10291921;28;20217;-75
2021/01/24 06:15:41;;;;;;;3.30;1.40;;;;;;;;;;10294011;28;20238;-74
2021/01/24 06:20:46;;;;;;;2.17;1.10;;;;;;;;;;10292387;28;20225;-75
2021/01/24 06:25:49;;;;;;;1.17;1.00;;;;;;;;;;10303977;28;22081;-75
2021/01/24 06:30:51;;;;;;;2.57;1.20;;;;;;;;;;10293917;28;20221;-74
2021/01/24 06:35:57;;;;;;;2.00;1.47;;;;;;;;;;10295898;28;20256;-74
2021/01/24 06:41:00;;;;;;;2.10;1.23;;;;;;;;;;10291157;28;20213;-73
2021/01/24 06:46:02;;;;;;;4.63;1.60;;;;;;;;;;10296705;28;20574;-74
2021/01/24 06:51:24;;;;;;;1.47;1.20;;;;;;;;;;10290180;28;20264;-74
2021/01/24 06:56:35;;;;;;;1.73;1.10;;;;;;;;;;10290802;28;20241;-73
2021/01/24 07:01:37;;;;;;;2.03;1.10;;;;;;;;;;10288641;28;20325;-73
2021/01/24 07:06:40;;;;;;;2.33;1.20;;;;;;;;;;10288489;28;20754;-73
2021/01/24 07:11:48;;;;;;;1.37;1.20;;;;;;;;;;10285366;28;20241;-74
2021/01/24 07:16:50;;;;;;;1.33;1.20;;;;;;;;;;10286178;28;20736;-73
2021/01/24 07:21:54;;;;;;;2.73;1.37;;;;;;;;;;10292077;28;20229;-73
2021/01/24 07:26:56;;;;;;;1.33;1.00;;;;;;;;;;10291696;28;20225;-73
2021/01/24 07:31:57;;;;;;;1.93;1.20;;;;;;;;;;10294999;28;20232;-73
2021/01/24 07:37:00;;;;;;;2.63;1.20;;;;;;;;;;10292033;28;20250;-73
2021/01/24 07:42:02;;;;;;;2.47;1.33;;;;;;;;;;10294013;28;20311;-74
2021/01/24 07:47:06;;;;;;;1.73;1.20;;;;;;;;;;10289295;28;20353;-74
2021/01/24 07:52:09;;;;;;;1.83;1.33;;;;;;;;;;10291186;28;20221;-74
2021/01/24 07:57:12;;;;;;;2.20;1.20;;;;;;;;;;10287904;28;20601;-74
2021/01/24 08:02:15;;;;;;;2.70;1.30;;;;;;;;;;10281571;28;20237;-74
2021/01/24 08:07:17;;;;;;;2.50;1.30;;;;;;;;;;10286082;28;20217;-73
2021/01/24 08:12:19;;;;;;;1.90;1.40;;;;;;;;;;10291281;28;20225;-74
2021/01/24 08:17:22;;;;;;;2.73;1.60;;;;;;;;;;10286856;28;20241;-73
2021/01/24 08:22:26;;;;;;;4.63;1.40;;;;;;;;;;10289109;28;20317;-73
2021/01/24 08:27:28;;;;;;;3.60;1.47;;;;;;;;;;10287176;28;20218;-73
2021/01/24 08:32:31;;;;;;;3.33;1.40;;;;;;;;;;10287687;28;20710;-73
2021/01/24 08:37:34;;;;;;;3.80;1.47;;;;;;;;;;10285320;28;22924;-74
2021/01/24 08:42:43;;;;;;;4.40;1.50;;;;;;;;;;10289449;28;20214;-75
2021/01/24 08:47:54;;;;;;;3.03;1.50;;;;;;;;;;10283689;28;20209;-73
2021/01/24 08:52:58;;;;;;;2.00;1.37;;;;;;;;;;10288559;28;20300;-73
2021/01/24 08:57:59;;;;;;;3.80;1.47;;;;;;;;;;10277547;28;20244;-73
2021/01/24 09:03:01;;;;;;;4.27;1.70;;;;;;;;;;10285954;28;20205;-73
2021/01/24 09:08:04;;;;;;;5.07;2.67;;;;;;;;;;10287574;28;20236;-73
2021/01/24 09:13:06;;;;;;;6.30;2.77;;;;;;;;;;10284419;28;20222;-73
2021/01/24 09:18:08;;;;;;;3.80;2.07;;;;;;;;;;10269093;28;20268;-73
2021/01/24 09:23:11;;;;;;;2.57;1.60;;;;;;;;;;10282745;28;20651;-73
2021/01/24 09:28:12;;;;;;;3.70;1.67;;;;;;;;;;10285344;28;20229;-74
2021/01/24 09:33:14;;;;;;;3.30;1.63;;;;;;;;;;10288486;28;20241;-73
2021/01/24 09:38:20;;;;;;;2.47;1.63;;;;;;;;;;10288852;28;20242;-73
2021/01/24 09:43:21;;;;;;;3.20;1.60;;;;;;;;;;10292430;28;20609;-74
2021/01/24 09:48:23;;;;;;;4.10;1.70;;;;;;;;;;10296015;28;20263;-73
2021/01/24 09:53:26;;;;;;;4.10;1.70;;;;;;;;;;10294130;28;20213;-74
2021/01/24 09:58:28;;;;;;;5.10;2.03;;;;;;;;;;10293825;28;20237;-74
2021/01/24 10:03:30;;;;;;;6.03;2.00;;;;;;;;;;10292531;28;20224;-74
2021/01/24 10:08:33;;;;;;;4.63;1.77;;;;;;;;;;10296347;28;20213;-74
2021/01/24 10:13:35;;;;;;;3.30;1.43;;;;;;;;;;10290880;28;20226;-74
2021/01/24 10:18:38;;;;;;;4.23;1.63;;;;;;;;;;10298196;28;20804;-75
2021/01/24 10:23:40;;;;;;;4.77;1.83;;;;;;;;;;10296019;28;20694;-77
2021/01/24 10:28:42;;;;;;;3.30;1.70;;;;;;;;;;10294215;28;20221;-76
2021/01/24 10:33:45;;;;;;;4.67;1.93;;;;;;;;;;10288046;28;20238;-77
2021/01/24 10:38:49;;;;;;;5.80;2.10;;;;;;;;;;10289424;28;20237;-74
2021/01/24 10:43:51;;;;;;;5.60;2.13;;;;;;;;;;10287133;28;20218;-74
2021/01/24 10:49:07;;;;;;;7.37;2.43;;;;;;;;;;10291902;28;20304;-74
2021/01/24 10:54:10;;;;;;;7.53;2.40;;;;;;;;;;10278684;28;20218;-74
2021/01/24 10:59:12;;;;;;;5.57;2.30;;;;;;;;;;10278778;28;20653;-74
2021/01/24 11:04:15;;;;;;;8.03;2.63;;;;;;;;;;10278254;28;20218;-75
2021/01/24 11:09:18;;;;;;;5.77;2.43;;;;;;;;;;10283134;28;20474;-74
2021/01/24 11:14:20;;;;;;;9.87;3.70;;;;;;;;;;10280704;28;20335;-73
2021/01/24 11:19:22;;;;;;;6.93;2.50;;;;;;;;;;10279448;28;20444;-74
2021/01/24 11:24:24;;;;;;;10.40;3.10;;;;;;;;;;10283001;28;20788;-74
2021/01/24 11:29:26;;;;;;;6.70;2.73;;;;;;;;;;10279215;28;20221;-74
2021/01/24 11:34:28;;;;;;;8.30;3.00;;;;;;;;;;10277903;28;20237;-74
2021/01/24 11:39:31;;;;;;;6.23;3.00;;;;;;;;;;10277872;28;20239;-74
2021/01/24 11:44:33;;;;;;;10.47;3.63;;;;;;;;;;10275364;28;20222;-74
2021/01/24 11:49:35;;;;;;;9.73;3.93;;;;;;;;;;10278182;28;20746;-75
2021/01/24 11:54:37;;;;;;;9.87;3.20;;;;;;;;;;10279574;28;20232;-74
2021/01/24 11:59:39;;;;;;;8.67;3.87;;;;;;;;;;10276381;28;20620;-74
2021/01/24 12:04:41;;;;;;;7.87;3.43;;;;;;;;;;10280381;28;20221;-74
2021/01/24 12:09:48;;;;;;;10.67;3.67;;;;;;;;;;10280686;28;20221;-75
2021/01/24 12:14:50;;;;;;;10.03;3.80;;;;;;;;;;10266353;28;20225;-74
2021/01/24 12:19:51;;;;;;;11.60;3.40;;;;;;;;;;10278035;28;20248;-78
2021/01/24 12:24:57;;;;;;;12.80;3.80;;;;;;;;;;10268697;28;20694;-75
2021/01/24 12:29:59;;;;;;;10.10;3.30;;;;;;;;;;10263679;28;20220;-73
2021/01/24 12:35:00;;;;;;;9.23;3.50;;;;;;;;;;10276964;28;20360;-73
2021/01/24 12:40:04;;;;;;;9.33;3.00;;;;;;;;;;10276932;28;20272;-72
2021/01/24 12:45:06;;;;;;;8.00;3.00;;;;;;;;;;10274689;28;20225;-72
2021/01/24 12:50:09;;;;;;;6.77;3.03;;;;;;;;;;10270772;28;20213;-73
2021/01/24 12:55:12;;;;;;;6.50;2.97;;;;;;;;;;10281635;28;20290;-74
2021/01/24 13:00:14;;;;;;;9.43;3.00;;;;;;;;;;10277923;28;20445;-75
2021/01/24 13:05:16;;;;;;;5.63;2.57;;;;;;;;;;10270990;28;20218;-75
2021/01/24 13:10:21;;;;;;;7.30;2.80;;;;;;;;;;10291656;28;20225;-74
2021/01/24 13:15:24;;;;;;;6.80;2.20;;;;;;;;;;10267119;28;20642;-74
2021/01/24 13:20:25;;;;;;;7.60;2.70;;;;;;;;;;10287426;28;20237;-74
2021/01/24 13:25:28;;;;;;;5.77;2.90;;;;;;;;;;10283989;28;20225;-73
2021/01/24 13:30:31;;;;;;;9.97;3.10;;;;;;;;;;10287361;28;20217;-73
2021/01/24 13:35:35;;;;;;;6.93;3.20;;;;;;;;;;10278916;28;20288;-73
2021/01/24 13:40:42;;;;;;;8.30;2.90;;;;;;;;;;10280945;28;20244;-73
2021/01/24 13:45:46;;;;;;;7.70;2.97;;;;;;;;;;10583900;23;20214;-79
2021/01/24 13:50:48;;;;;;;5.40;3.03;;;;;;;;;;10242728;28;20222;-78
2021/01/24 13:55:50;;;;;;;8.97;3.20;;;;;;;;;;10244786;28;20217;-76
2021/01/24 14:00:51;;;;;;;5.77;2.70;;;;;;;;;;10244290;28;20273;-74
2021/01/24 14:05:53;;;;;;;7.37;2.60;;;;;;;;;;10294404;23;20213;-77
2021/01/24 14:10:56;;;;;;;5.03;2.47;;;;;;;;;;10215665;28;20222;-79
2021/01/24 14:15:58;;;;;;;10.00;3.20;;;;;;;;;;10215494;28;20573;-81
2021/01/24 14:21:00;;;;;;;6.00;3.13;;;;;;;;;;10220877;28;20234;-80
2021/01/24 14:26:03;;;;;;;7.40;3.60;;;;;;;;;;10216962;28;21020;-82
2021/01/24 14:31:06;;;;;;;10.30;4.40;;;;;;;;;;10218577;28;20219;-90
2021/01/24 14:36:09;;;;;;;9.70;4.10;;;;;;;;;;10193107;28;20242;-79
2021/01/24 14:41:12;;;;;;;10.77;3.87;;;;;;;;;;10174214;29;20720;-81
2021/01/24 14:46:14;;;;;;;5.80;3.60;;;;;;;;;;10185521;29;20230;-79
2021/01/24 14:51:16;;;;;;;8.07;3.60;;;;;;;;;;10180512;29;20223;-81
2021/01/24 14:56:19;;;;;;;7.00;4.00;;;;;;;;;;10182254;29;20694;-77
2021/01/24 15:01:21;;;;;;;8.33;4.07;;;;;;;;;;10180335;29;20221;-78
2021/01/24 15:06:23;;;;;;;7.77;3.67;;;;;;;;;;10179595;29;20242;-78
2021/01/24 15:11:26;;;;;;;10.60;4.13;;;;;;;;;;10177623;29;20224;-82
2021/01/24 15:16:28;;;;;;;5.87;3.53;;;;;;;;;;10178276;29;20250;-80
2021/01/24 15:21:31;;;;;;;10.23;3.93;;;;;;;;;;10182782;29;20673;-79
2021/01/24 15:26:33;;;;;;;8.60;4.37;;;;;;;;;;10180657;29;20748;-82
2021/01/24 15:31:35;;;;;;;10.73;4.60;;;;;;;;;;10177291;29;20406;-81
2021/01/24 15:36:37;;;;;;;9.43;4.73;;;;;;;;;;10175734;28;20244;-81
2021/01/24 15:41:41;;;;;;;9.37;4.27;;;;;;;;;;10175581;29;20231;-79
2021/01/24 15:46:43;;;;;;;12.40;5.20;;;;;;;;;;10177784;29;20209;-79
2021/01/24 15:51:45;;;;;;;8.93;5.17;;;;;;;;;;10170488;29;20225;-79
2021/01/24 15:56:48;;;;;;;11.17;5.80;;;;;;;;;;10174699;29;20725;-80
2021/01/24 16:01:50;;;;;;;9.83;5.53;;;;;;;;;;10177637;29;20223;-79
2021/01/24 16:06:52;;;;;;;9.93;5.50;;;;;;;;;;10169044;29;20233;-81
2021/01/24 16:11:55;;;;;;;8.97;5.20;;;;;;;;;;10180618;29;20216;-81
2021/01/24 16:16:57;;;;;;;11.37;5.73;;;;;;;;;;10172333;29;20251;-78
2021/01/24 16:22:00;;;;;;;11.83;6.47;;;;;;;;;;10180619;29;20214;-83
2021/01/24 16:27:03;;;;;;;11.63;6.30;;;;;;;;;;10180422;29;20216;-90
2021/01/24 16:32:05;;;;;;;10.27;5.67;;;;;;;;;;10173425;29;20223;-79
2021/01/24 16:37:08;;;;;;;12.80;6.00;;;;;;;;;;10169116;29;20282;-83
2021/01/24 16:42:11;;;;;;;11.80;5.77;;;;;;;;;;10174724;29;20224;-88
2021/01/24 16:47:13;;;;;;;12.63;6.00;;;;;;;;;;10178689;29;20581;-77
2021/01/24 16:52:15;;;;;;;11.93;6.47;;;;;;;;;;10170667;29;20722;-78
2021/01/24 16:57:19;;;;;;;10.47;6.43;;;;;;;;;;10166756;29;20919;-77
2021/01/24 17:02:20;;;;;;;13.20;6.03;;;;;;;;;;10163251;29;20474;-79
2021/01/24 17:07:23;;;;;;;12.63;6.43;;;;;;;;;;10170129;29;20366;-79
2021/01/24 17:12:25;;;;;;;13.93;6.10;;;;;;;;;;10168743;29;20542;-79
2021/01/24 17:17:28;;;;;;;9.67;6.00;;;;;;;;;;10170186;29;20683;-79
2021/01/24 17:22:30;;;;;;;10.03;6.27;;;;;;;;;;10165035;29;20219;-81
2021/01/24 17:27:33;;;;;;;12.80;7.17;;;;;;;;;;10176715;29;21684;-81
2021/01/24 17:32:35;;;;;;;12.27;6.77;;;;;;;;;;10171418;28;20556;-83
2021/01/24 17:37:37;;;;;;;13.20;6.70;;;;;;;;;;10174344;29;20390;-83
2021/01/24 17:42:40;;;;;;;11.63;6.90;;;;;;;;;;10167858;29;20486;-84
2021/01/24 17:47:42;;;;;;;14.53;6.93;;;;;;;;;;10174752;29;20312;-84
2021/01/24 17:52:45;;;;;;;10.73;7.10;;;;;;;;;;10181385;29;20216;-85
2021/01/24 17:57:48;;;;;;;12.80;7.03;;;;;;;;;;10167362;29;20247;-85
2021/01/24 18:02:52;;;;;;;11.53;7.00;;;;;;;;;;10176345;29;20234;-81
2021/01/24 18:08:04;;;;;;;10.70;7.10;;;;;;;;;;10169507;29;20217;-82
2021/01/24 18:13:07;;;;;;;12.10;7.20;;;;;;;;;;10171560;29;20219;-81
2021/01/24 18:18:09;;;;;;;13.40;7.20;;;;;;;;;;10165853;29;20239;-81
2021/01/24 18:23:11;;;;;;;14.03;7.87;;;;;;;;;;10170588;29;20649;-81
2021/01/24 18:28:14;;;;;;;14.60;8.00;;;;;;;;;;10168560;29;20232;-82
2021/01/24 18:33:16;;;;;;;15.10;9.00;;;;;;;;;;10165189;29;20242;-81
2021/01/24 18:38:18;;;;;;;11.77;8.30;;;;;;;;;;10165777;29;20603;-83
2021/01/24 18:43:21;;;;;;;13.07;8.13;;;;;;;;;;10170820;29;20216;-82
2021/01/24 18:48:23;;;;;;;12.13;7.70;;;;;;;;;;10162525;29;20740;-82
2021/01/24 18:53:26;;;;;;;14.33;8.37;;;;;;;;;;10171112;29;20702;-82
2021/01/24 18:58:29;;;;;;;13.60;8.03;;;;;;;;;;10167271;29;20248;-82
2021/01/24 19:03:31;;;;;;;13.17;8.03;;;;;;;;;;10171300;29;20542;-82
2021/01/24 19:08:33;;;;;;;14.27;8.33;;;;;;;;;;10172644;29;20636;-83
2021/01/24 19:13:37;;;;;;;14.57;8.83;;;;;;;;;;10169717;29;20226;-83
2021/01/24 19:18:39;;;;;;;15.10;8.60;;;;;;;;;;10169253;29;20571;-83
2021/01/24 19:23:41;;;;;;;13.70;8.90;;;;;;;;;;10167631;29;20223;-84
2021/01/24 19:28:46;;;;;;;16.57;9.80;;;;;;;;;;10169258;29;20220;-79
2021/01/24 19:33:48;;;;;;;14.60;8.70;;;;;;;;;;10168773;29;20243;-79
2021/01/24 19:38:50;;;;;;;16.27;9.00;;;;;;;;;;10180819;28;20244;-79
2021/01/24 19:43:53;;;;;;;14.87;8.77;;;;;;;;;;10172584;29;20230;-79
2021/01/24 19:48:55;;;;;;;15.53;8.83;;;;;;;;;;10174943;29;20226;-80
2021/01/24 19:53:57;;;;;;;13.47;8.83;;;;;;;;;;10173651;29;20688;-79
2021/01/24 19:59:00;;;;;;;20.73;9.70;;;;;;;;;;10177488;29;20231;-80
2021/01/24 20:04:03;;;;;;;18.10;9.17;;;;;;;;;;10174517;29;20631;-80
2021/01/24 20:09:06;;;;;;;19.30;9.47;;;;;;;;;;10174431;29;20310;-79
2021/01/24 20:14:09;;;;;;;17.27;9.47;;;;;;;;;;10177324;29;20218;-79
2021/01/24 20:19:11;;;;;;;16.73;9.23;;;;;;;;;;10178216;29;20920;-79
2021/01/24 20:24:13;;;;;;;13.90;8.77;;;;;;;;;;10178397;29;20227;-79
2021/01/24 20:29:16;;;;;;;14.80;8.67;;;;;;;;;;10175766;29;20356;-79
2021/01/24 20:34:18;;;;;;;17.27;9.70;;;;;;;;;;10172445;29;20242;-78
2021/01/24 20:39:20;;;;;;;15.63;9.43;;;;;;;;;;10173191;29;20476;-80
2021/01/24 20:44:23;;;;;;;13.80;8.97;;;;;;;;;;10173220;29;20238;-79
2021/01/24 20:49:24;;;;;;;15.97;9.00;;;;;;;;;;10172069;29;20203;-79
2021/01/24 20:54:26;;;;;;;14.67;8.93;;;;;;;;;;10175325;28;20223;-80
2021/01/24 20:59:29;;;;;;;15.20;9.43;;;;;;;;;;10176581;29;20246;-79
2021/01/24 21:04:31;;;;;;;21.43;9.07;;;;;;;;;;10177851;29;20223;-80
2021/01/24 21:09:34;;;;;;;15.93;9.13;;;;;;;;;;10174152;29;20224;-79
2021/01/24 21:14:36;;;;;;;16.10;9.17;;;;;;;;;;10178613;29;20222;-79
2021/01/24 21:19:38;;;;;;;16.80;9.30;;;;;;;;;;10176639;29;20256;-79
2021/01/24 21:24:40;;;;;;;16.80;9.20;;;;;;;;;;10177622;29;20225;-80
2021/01/24 21:29:44;;;;;;;14.47;8.87;;;;;;;;;;10176635;29;20224;-80
2021/01/24 21:34:46;;;;;;;16.77;8.87;;;;;;;;;;10173732;28;20374;-80
2021/01/24 21:39:48;;;;;;;13.57;8.57;;;;;;;;;;10173182;29;23340;-80
2021/01/24 21:44:51;;;;;;;16.20;9.10;;;;;;;;;;10173638;29;20716;-79
2021/01/24 21:49:53;;;;;;;14.30;8.83;;;;;;;;;;10174557;29;20220;-79
2021/01/24 21:54:55;;;;;;;16.50;9.07;;;;;;;;;;10175276;29;20219;-80
2021/01/24 21:59:58;;;;;;;14.60;8.97;;;;;;;;;;10174862;29;20326;-80
2021/01/24 22:05:00;;;;;;;15.97;9.20;;;;;;;;;;10173909;29;20207;-80
2021/01/24 22:10:01;;;;;;;17.00;8.50;;;;;;;;;;10177852;29;20219;-80
2021/01/24 22:15:06;;;;;;;14.23;8.33;;;;;;;;;;10174413;29;20231;-80
2021/01/24 22:20:08;;;;;;;15.87;8.77;;;;;;;;;;10175229;29;20245;-80
2021/01/24 22:25:12;;;;;;;15.17;8.87;;;;;;;;;;10171724;29;20223;-80
2021/01/24 22:30:15;;;;;;;16.63;10.00;;;;;;;;;;10174380;29;20593;-80
2021/01/24 22:35:17;;;;;;;15.10;9.43;;;;;;;;;;10174415;29;20735;-80
2021/01/24 22:40:19;;;;;;;17.90;9.57;;;;;;;;;;10170823;29;20238;-80
2021/01/24 22:45:21;;;;;;;17.63;9.23;;;;;;;;;;10172418;29;20207;-80
2021/01/24 22:50:23;;;;;;;17.93;8.90;;;;;;;;;;10179691;29;20302;-80
2021/01/24 22:55:25;;;;;;;15.50;9.33;;;;;;;;;;10184680;29;20250;-80
2021/01/24 23:00:28;;;;;;;14.87;9.07;;;;;;;;;;10180556;29;20864;-80
2021/01/24 23:05:30;;;;;;;15.13;9.20;;;;;;;;;;10184905;29;20692;-79
2021/01/24 23:10:32;;;;;;;15.87;8.60;;;;;;;;;;10186722;29;20227;-80
2021/01/24 23:15:35;;;;;;;13.70;8.63;;;;;;;;;;10185535;29;20227;-80
2021/01/24 23:20:36;;;;;;;12.40;8.10;;;;;;;;;;10186308;29;20236;-80
2021/01/24 23:25:39;;;;;;;15.93;8.47;;;;;;;;;;10183797;28;20234;-80
2021/01/24 23:30:41;;;;;;;13.37;8.53;;;;;;;;;;10188729;29;20235;-81
2021/01/24 23:35:46;;;;;;;16.50;8.73;;;;;;;;;;10192379;29;20268;-80
2021/01/24 23:40:48;;;;;;;13.17;8.60;;;;;;;;;;10183711;29;20256;-81
2021/01/24 23:45:51;;;;;;;15.10;9.17;;;;;;;;;;10176871;29;20219;-80
2021/01/24 23:50:53;;;;;;;13.63;8.67;;;;;;;;;;10173728;29;20704;-80
2021/01/24 23:55:55;;;;;;;17.27;9.60;;;;;;;;;;10176841;29;20220;-80
